sensor_id;sensor_type;location;lat;lon;timestamp;pressure;altitude;pressure_sealevel;temperature;humidity
55685;BME280;41883;49.544;8.646;2022-09-09T00:00:53;100059.03;;;16.87;71.94
55685;BME280;41883;49.544;8.646;2022-09-09T00:03:24;100049.19;;;16.88;71.82
55685;BME280;41883;49.544;8.646;2022-09-09T00:06:11;100043.00;;;16.87;71.91
55685;BME280;41883;49.544;8.646;2022-09-09T00:09:18;100030.28;;;16.83;71.99
55685;BME280;41883;49.544;8.646;2022-09-09T00:11:51;100037.88;;;16.79;71.80
55685;BME280;41883;49.544;8.646;2022-09-09T00:14:35;100034.75;;;16.75;71.74
55685;BME280;41883;49.544;8.646;2022-09-09T00:17:08;100034.56;;;16.77;72.00
55685;BME280;41883;49.544;8.646;2022-09-09T00:19:44;100043.63;;;16.89;71.94
55685;BME280;41883;49.544;8.646;2022-09-09T00:22:18;100037.06;;;16.98;71.30
55685;BME280;41883;49.544;8.646;2022-09-09T00:24:51;100039.56;;;17.07;71.65
55685;BME280;41883;49.544;8.646;2022-09-09T00:27:31;100040.97;;;17.16;71.20
55685;BME280;41883;49.544;8.646;2022-09-09T00:33:11;100044.44;;;17.30;70.96
55685;BME280;41883;49.544;8.646;2022-09-09T00:35:44;100039.28;;;17.35;70.39
55685;BME280;41883;49.544;8.646;2022-09-09T00:38:24;100042.19;;;17.40;70.72
55685;BME280;41883;49.544;8.646;2022-09-09T00:40:53;100041.53;;;17.45;70.25
55685;BME280;41883;49.544;8.646;2022-09-09T00:43:25;100037.22;;;17.50;70.05
55685;BME280;41883;49.544;8.646;2022-09-09T00:49:00;100039.47;;;17.53;70.45
55685;BME280;41883;49.544;8.646;2022-09-09T00:51:46;100035.78;;;17.54;70.05
55685;BME280;41883;49.544;8.646;2022-09-09T00:57:01;100038.22;;;17.62;69.91
55685;BME280;41883;49.544;8.646;2022-09-09T01:02:15;100044.38;;;17.70;69.41
55685;BME280;41883;49.544;8.646;2022-09-09T01:04:43;100044.97;;;17.72;69.57
55685;BME280;41883;49.544;8.646;2022-09-09T01:07:27;100039.63;;;17.72;69.61
55685;BME280;41883;49.544;8.646;2022-09-09T01:09:57;100041.69;;;17.70;69.91
55685;BME280;41883;49.544;8.646;2022-09-09T01:12:26;100044.63;;;17.55;70.36
55685;BME280;41883;49.544;8.646;2022-09-09T01:15:15;100038.47;;;17.41;70.86
55685;BME280;41883;49.544;8.646;2022-09-09T01:23:34;100033.88;;;17.68;69.53
55685;BME280;41883;49.544;8.646;2022-09-09T01:26:15;100029.75;;;17.66;69.39
55685;BME280;41883;49.544;8.646;2022-09-09T01:28:47;100038.22;;;17.62;69.48
55685;BME280;41883;49.544;8.646;2022-09-09T01:31:18;100034.94;;;17.60;69.48
55685;BME280;41883;49.544;8.646;2022-09-09T01:33:45;100034.31;;;17.58;69.51
55685;BME280;41883;49.544;8.646;2022-09-09T01:36:21;100047.50;;;17.53;69.76
55685;BME280;41883;49.544;8.646;2022-09-09T01:38:48;100042.34;;;17.52;69.76
55685;BME280;41883;49.544;8.646;2022-09-09T01:41:14;100043.59;;;17.49;69.76
55685;BME280;41883;49.544;8.646;2022-09-09T01:43:39;100044.22;;;17.45;70.21
55685;BME280;41883;49.544;8.646;2022-09-09T01:46:04;100038.91;;;17.38;70.46
55685;BME280;41883;49.544;8.646;2022-09-09T01:48:30;100051.66;;;17.36;70.73
55685;BME280;41883;49.544;8.646;2022-09-09T01:50:56;100057.59;;;17.38;70.40
55685;BME280;41883;49.544;8.646;2022-09-09T01:53:21;100040.13;;;17.35;70.74
55685;BME280;41883;49.544;8.646;2022-09-09T01:56:02;100048.34;;;17.34;70.88
55685;BME280;41883;49.544;8.646;2022-09-09T02:01:57;100040.56;;;17.26;71.43
55685;BME280;41883;49.544;8.646;2022-09-09T02:04:36;100046.31;;;17.23;71.82
55685;BME280;41883;49.544;8.646;2022-09-09T02:07:05;100042.00;;;17.22;71.73
55685;BME280;41883;49.544;8.646;2022-09-09T02:09:35;100034.38;;;17.25;72.00
55685;BME280;41883;49.544;8.646;2022-09-09T02:12:06;100044.88;;;17.27;71.66
55685;BME280;41883;49.544;8.646;2022-09-09T02:14:41;100040.13;;;17.29;71.96
55685;BME280;41883;49.544;8.646;2022-09-09T02:17:13;100046.91;;;17.25;71.96
55685;BME280;41883;49.544;8.646;2022-09-09T02:19:46;100046.91;;;17.25;71.95
55685;BME280;41883;49.544;8.646;2022-09-09T02:22:17;100050.63;;;17.24;72.28
55685;BME280;41883;49.544;8.646;2022-09-09T02:24:44;100050.44;;;17.18;72.34
55685;BME280;41883;49.544;8.646;2022-09-09T02:27:12;100054.53;;;17.14;72.79
55685;BME280;41883;49.544;8.646;2022-09-09T02:29:40;100051.88;;;17.14;72.50
55685;BME280;41883;49.544;8.646;2022-09-09T02:32:10;100044.03;;;17.13;72.72
55685;BME280;41883;49.544;8.646;2022-09-09T02:34:40;100053.72;;;17.07;73.38
55685;BME280;41883;49.544;8.646;2022-09-09T02:37:09;100052.06;;;17.06;73.14
55685;BME280;41883;49.544;8.646;2022-09-09T02:39:35;100048.19;;;17.02;73.38
55685;BME280;41883;49.544;8.646;2022-09-09T02:42:00;100051.47;;;17.04;73.27
55685;BME280;41883;49.544;8.646;2022-09-09T02:44:25;100042.84;;;17.02;73.15
55685;BME280;41883;49.544;8.646;2022-09-09T02:47:10;100037.69;;;17.01;73.28
55685;BME280;41883;49.544;8.646;2022-09-09T02:50:08;100052.69;;;16.95;74.01
55685;BME280;41883;49.544;8.646;2022-09-09T02:53:11;100051.44;;;16.91;74.21
55685;BME280;41883;49.544;8.646;2022-09-09T02:55:59;100052.88;;;16.87;74.59
55685;BME280;41883;49.544;8.646;2022-09-09T02:58:29;100050.22;;;16.87;74.18
55685;BME280;41883;49.544;8.646;2022-09-09T03:00:54;100052.06;;;16.86;74.40
55685;BME280;41883;49.544;8.646;2022-09-09T03:03:22;100068.88;;;16.80;75.02
55685;BME280;41883;49.544;8.646;2022-09-09T03:05:47;100052.88;;;16.80;74.79
55685;BME280;41883;49.544;8.646;2022-09-09T03:08:13;100048.09;;;16.75;74.84
55685;BME280;41883;49.544;8.646;2022-09-09T03:10:38;100048.94;;;16.69;75.18
55685;BME280;41883;49.544;8.646;2022-09-09T03:13:04;100041.72;;;16.63;75.63
55685;BME280;41883;49.544;8.646;2022-09-09T03:15:31;100042.56;;;16.57;75.94
55685;BME280;41883;49.544;8.646;2022-09-09T03:17:56;100029.59;;;16.54;75.83
55685;BME280;41883;49.544;8.646;2022-09-09T03:20:23;100037.41;;;16.49;76.30
55685;BME280;41883;49.544;8.646;2022-09-09T03:22:48;100036.19;;;16.45;76.32
55685;BME280;41883;49.544;8.646;2022-09-09T03:25:14;100035.13;;;16.39;76.67
55685;BME280;41883;49.544;8.646;2022-09-09T03:27:40;100040.06;;;16.35;76.73
55685;BME280;41883;49.544;8.646;2022-09-09T03:30:05;100036.94;;;16.32;77.15
55685;BME280;41883;49.544;8.646;2022-09-09T03:32:31;100035.69;;;16.28;77.27
55685;BME280;41883;49.544;8.646;2022-09-09T03:34:57;100036.94;;;16.25;77.49
55685;BME280;41883;49.544;8.646;2022-09-09T03:37:22;100046.16;;;16.23;77.38
55685;BME280;41883;49.544;8.646;2022-09-09T03:39:47;100043.91;;;16.20;77.72
55685;BME280;41883;49.544;8.646;2022-09-09T03:42:14;100039.97;;;16.16;78.01
55685;BME280;41883;49.544;8.646;2022-09-09T03:44:40;100040.38;;;16.12;78.22
55685;BME280;41883;49.544;8.646;2022-09-09T03:47:07;100030.13;;;16.09;78.09
55685;BME280;41883;49.544;8.646;2022-09-09T03:49:32;100039.34;;;16.07;77.91
55685;BME280;41883;49.544;8.646;2022-09-09T03:51:57;100038.91;;;16.03;78.17
55685;BME280;41883;49.544;8.646;2022-09-09T03:54:24;100045.47;;;16.01;78.25
55685;BME280;41883;49.544;8.646;2022-09-09T03:56:50;100053.66;;;15.99;78.09
55685;BME280;41883;49.544;8.646;2022-09-09T03:59:15;100047.28;;;15.93;79.04
55685;BME280;41883;49.544;8.646;2022-09-09T04:01:40;100046.47;;;15.93;78.34
55685;BME280;41883;49.544;8.646;2022-09-09T04:04:06;100045.66;;;15.92;78.46
55685;BME280;41883;49.544;8.646;2022-09-09T04:06:31;100046.03;;;15.89;78.49
55685;BME280;41883;49.544;8.646;2022-09-09T04:08:56;100044.59;;;15.87;78.40
55685;BME280;41883;49.544;8.646;2022-09-09T04:11:22;100043.94;;;15.85;78.50
55685;BME280;41883;49.544;8.646;2022-09-09T04:13:47;100050.13;;;15.85;78.20
55685;BME280;41883;49.544;8.646;2022-09-09T04:16:13;100052.56;;;15.80;78.63
55685;BME280;41883;49.544;8.646;2022-09-09T04:18:39;100064.47;;;15.84;78.22
55685;BME280;41883;49.544;8.646;2022-09-09T04:21:05;100052.34;;;15.82;78.07
55685;BME280;41883;49.544;8.646;2022-09-09T04:23:32;100053.38;;;15.81;77.96
55685;BME280;41883;49.544;8.646;2022-09-09T04:26:00;100050.72;;;15.81;78.09
55685;BME280;41883;49.544;8.646;2022-09-09T04:28:27;100052.13;;;15.77;78.21
55685;BME280;41883;49.544;8.646;2022-09-09T04:30:54;100052.53;;;15.74;78.40
55685;BME280;41883;49.544;8.646;2022-09-09T04:33:23;100056.00;;;15.74;78.43
55685;BME280;41883;49.544;8.646;2022-09-09T04:35:51;100052.53;;;15.74;78.34
55685;BME280;41883;49.544;8.646;2022-09-09T04:38:19;100060.53;;;15.74;78.58
55685;BME280;41883;49.544;8.646;2022-09-09T04:40:48;100064.63;;;15.76;78.06
55685;BME280;41883;49.544;8.646;2022-09-09T04:43:14;100063.59;;;15.77;78.38
55685;BME280;41883;49.544;8.646;2022-09-09T04:45:40;100071.59;;;15.77;78.36
55685;BME280;41883;49.544;8.646;2022-09-09T04:48:07;100070.00;;;15.83;78.42
55685;BME280;41883;49.544;8.646;2022-09-09T04:50:32;100065.72;;;15.88;78.13
55685;BME280;41883;49.544;8.646;2022-09-09T04:53:04;100077.22;;;15.89;77.79
55685;BME280;41883;49.544;8.646;2022-09-09T04:55:30;100089.31;;;15.91;77.96
55685;BME280;41883;49.544;8.646;2022-09-09T04:57:56;100090.97;;;15.92;77.72
55685;BME280;41883;49.544;8.646;2022-09-09T05:00:23;100089.31;;;15.91;77.93
55685;BME280;41883;49.544;8.646;2022-09-09T05:02:49;100090.56;;;15.96;77.66
55685;BME280;41883;49.544;8.646;2022-09-09T05:05:14;100087.91;;;15.96;78.03
55685;BME280;41883;49.544;8.646;2022-09-09T05:07:40;100095.50;;;15.99;77.73
55685;BME280;41883;49.544;8.646;2022-09-09T05:10:05;100090.16;;;15.99;78.02
55685;BME280;41883;49.544;8.646;2022-09-09T05:12:31;100084.47;;;16.02;77.66
55685;BME280;41883;49.544;8.646;2022-09-09T05:14:57;100090.03;;;16.07;77.41
55685;BME280;41883;49.544;8.646;2022-09-09T05:17:23;100091.66;;;16.08;77.46
55685;BME280;41883;49.544;8.646;2022-09-09T05:19:48;100087.13;;;16.08;77.66
55685;BME280;41883;49.544;8.646;2022-09-09T05:22:20;100093.72;;;16.12;77.38
55685;BME280;41883;49.544;8.646;2022-09-09T05:24:48;100087.38;;;16.13;77.50
55685;BME280;41883;49.544;8.646;2022-09-09T05:27:16;100095.59;;;16.12;77.40
55685;BME280;41883;49.544;8.646;2022-09-09T05:29:43;100099.88;;;16.13;77.31
55685;BME280;41883;49.544;8.646;2022-09-09T05:32:09;100102.78;;;16.18;77.60
55685;BME280;41883;49.544;8.646;2022-09-09T05:34:35;100111.84;;;16.24;77.34
55685;BME280;41883;49.544;8.646;2022-09-09T05:37:00;100114.28;;;16.25;77.28
55685;BME280;41883;49.544;8.646;2022-09-09T05:39:25;100111.66;;;16.32;77.19
55685;BME280;41883;49.544;8.646;2022-09-09T05:41:51;100122.41;;;16.45;76.88
55685;BME280;41883;49.544;8.646;2022-09-09T05:44:16;100112.59;;;16.59;76.56
55685;BME280;41883;49.544;8.646;2022-09-09T05:46:41;100119.59;;;16.73;76.01
55685;BME280;41883;49.544;8.646;2022-09-09T05:49:06;100116.94;;;16.80;75.75
55685;BME280;41883;49.544;8.646;2022-09-09T05:51:33;100123.97;;;16.81;75.36
55685;BME280;41883;49.544;8.646;2022-09-09T05:53:58;100120.88;;;16.84;75.54
55685;BME280;41883;49.544;8.646;2022-09-09T05:56:26;100118.00;;;16.86;75.53
55685;BME280;41883;49.544;8.646;2022-09-09T05:58:52;100123.13;;;16.87;75.39
55685;BME280;41883;49.544;8.646;2022-09-09T06:03:49;100131.13;;;16.87;75.52
55685;BME280;41883;49.544;8.646;2022-09-09T06:06:17;100128.28;;;16.89;75.21
55685;BME280;41883;49.544;8.646;2022-09-09T06:08:44;100131.16;;;16.94;75.10
55685;BME280;41883;49.544;8.646;2022-09-09T06:11:12;100127.88;;;16.98;74.98
55685;BME280;41883;49.544;8.646;2022-09-09T06:13:38;100134.47;;;17.03;74.88
55685;BME280;41883;49.544;8.646;2022-09-09T06:16:13;100136.31;;;17.09;74.50
55685;BME280;41883;49.544;8.646;2022-09-09T06:18:39;100142.69;;;17.14;74.35
55685;BME280;41883;49.544;8.646;2022-09-09T06:21:07;100133.03;;;17.20;74.02
55685;BME280;41883;49.544;8.646;2022-09-09T06:23:34;100137.38;;;17.21;74.15
55685;BME280;41883;49.544;8.646;2022-09-09T06:26:15;100132.63;;;17.10;74.41
55685;BME280;41883;49.544;8.646;2022-09-09T06:28:45;100138.75;;;16.97;74.83
55685;BME280;41883;49.544;8.646;2022-09-09T06:31:12;100132.00;;;16.88;74.91
55685;BME280;41883;49.544;8.646;2022-09-09T06:33:40;100137.09;;;16.83;75.29
55685;BME280;41883;49.544;8.646;2022-09-09T06:36:10;100125.00;;;16.93;76.15
55685;BME280;41883;49.544;8.646;2022-09-09T06:38:36;100132.63;;;17.56;75.29
55685;BME280;41883;49.544;8.646;2022-09-09T06:41:01;100128.81;;;18.17;74.21
55685;BME280;41883;49.544;8.646;2022-09-09T06:43:27;100140.94;;;18.27;71.85
55685;BME280;41883;49.544;8.646;2022-09-09T06:45:57;100138.28;;;18.20;71.46
55685;BME280;41883;49.544;8.646;2022-09-09T06:48:23;100135.34;;;18.35;71.50
55685;BME280;41883;49.544;8.646;2022-09-09T06:50:48;100142.94;;;18.83;71.14
55685;BME280;41883;49.544;8.646;2022-09-09T06:53:18;100145.47;;;19.35;70.09
55685;BME280;41883;49.544;8.646;2022-09-09T06:55:44;100141.28;;;19.45;69.21
55685;BME280;41883;49.544;8.646;2022-09-09T06:58:10;100148.91;;;19.67;67.94
55685;BME280;41883;49.544;8.646;2022-09-09T07:00:36;100155.78;;;19.88;67.66
55685;BME280;41883;49.544;8.646;2022-09-09T07:03:04;100141.34;;;19.82;66.41
55685;BME280;41883;49.544;8.646;2022-09-09T07:05:30;100144.28;;;19.81;66.10
55685;BME280;41883;49.544;8.646;2022-09-09T07:07:55;100144.69;;;19.78;65.70
55685;BME280;41883;49.544;8.646;2022-09-09T07:10:20;100149.09;;;19.72;65.41
55685;BME280;41883;49.544;8.646;2022-09-09T07:12:50;100139.22;;;19.66;65.85
55685;BME280;41883;49.544;8.646;2022-09-09T07:15:16;100149.97;;;19.41;65.99
55685;BME280;41883;49.544;8.646;2022-09-09T07:17:44;100143.44;;;19.30;66.62
55685;BME280;41883;49.544;8.646;2022-09-09T07:20:10;100139.13;;;19.29;66.79
55685;BME280;41883;49.544;8.646;2022-09-09T07:22:35;100144.13;;;19.50;66.61
55685;BME280;41883;49.544;8.646;2022-09-09T07:25:00;100137.78;;;19.70;66.07
55685;BME280;41883;49.544;8.646;2022-09-09T07:27:27;100140.75;;;19.80;65.83
55685;BME280;41883;49.544;8.646;2022-09-09T07:29:52;100151.22;;;19.63;65.80
55685;BME280;41883;49.544;8.646;2022-09-09T07:32:19;100149.16;;;19.40;66.21
55685;BME280;41883;49.544;8.646;2022-09-09T07:34:45;100145.44;;;19.41;66.07
55685;BME280;41883;49.544;8.646;2022-09-09T07:37:11;100145.81;;;19.70;65.82
55685;BME280;41883;49.544;8.646;2022-09-09T07:39:38;100143.41;;;20.05;64.19
55685;BME280;41883;49.544;8.646;2022-09-09T07:42:04;100147.34;;;20.03;64.43
55685;BME280;41883;49.544;8.646;2022-09-09T07:44:30;100144.28;;;19.99;64.60
55685;BME280;41883;49.544;8.646;2022-09-09T07:46:57;100141.00;;;19.97;64.66
55685;BME280;41883;49.544;8.646;2022-09-09T07:49:22;100151.44;;;19.87;64.24
55685;BME280;41883;49.544;8.646;2022-09-09T07:51:48;100150.69;;;19.80;64.52
55685;BME280;41883;49.544;8.646;2022-09-09T07:54:15;100145.09;;;20.00;64.17
55685;BME280;41883;49.544;8.646;2022-09-09T07:56:42;100141.59;;;20.18;63.59
55685;BME280;41883;49.544;8.646;2022-09-09T07:59:08;100138.84;;;20.24;63.12
55685;BME280;41883;49.544;8.646;2022-09-09T08:01:37;100143.81;;;20.21;62.78
55685;BME280;41883;49.544;8.646;2022-09-09T08:04:06;100151.94;;;20.32;62.99
55685;BME280;41883;49.544;8.646;2022-09-09T08:06:36;100154.50;;;20.46;62.66
55685;BME280;41883;49.544;8.646;2022-09-09T08:09:02;100155.50;;;20.82;61.79
55685;BME280;41883;49.544;8.646;2022-09-09T08:11:29;100161.84;;;20.99;60.84
55685;BME280;41883;49.544;8.646;2022-09-09T08:13:55;100160.94;;;21.05;60.00
55685;BME280;41883;49.544;8.646;2022-09-09T08:16:26;100160.84;;;21.12;60.20
55685;BME280;41883;49.544;8.646;2022-09-09T08:18:52;100163.53;;;21.12;59.69
55685;BME280;41883;49.544;8.646;2022-09-09T08:21:24;100168.91;;;21.24;59.82
55685;BME280;41883;49.544;8.646;2022-09-09T08:23:52;100167.41;;;21.28;59.58
55685;BME280;41883;49.544;8.646;2022-09-09T08:26:20;100169.63;;;21.31;59.97
55685;BME280;41883;49.544;8.646;2022-09-09T08:28:49;100179.84;;;20.98;60.60
55685;BME280;41883;49.544;8.646;2022-09-09T08:31:19;100172.69;;;19.88;64.28
55685;BME280;41883;49.544;8.646;2022-09-09T08:33:44;100168.75;;;19.41;66.37
55685;BME280;41883;49.544;8.646;2022-09-09T08:36:13;100166.63;;;19.18;68.02
55685;BME280;41883;49.544;8.646;2022-09-09T08:38:41;100164.13;;;18.91;69.36
55685;BME280;41883;49.544;8.646;2022-09-09T08:43:47;100166.16;;;18.51;71.24
55685;BME280;41883;49.544;8.646;2022-09-09T08:46:44;100151.19;;;18.36;71.92
55685;BME280;41883;49.544;8.646;2022-09-09T08:51:58;100171.69;;;19.01;71.16
55685;BME280;41883;49.544;8.646;2022-09-09T08:54:25;100177.97;;;19.45;69.84
55685;BME280;41883;49.544;8.646;2022-09-09T08:56:57;100177.66;;;19.85;68.75
55685;BME280;41883;49.544;8.646;2022-09-09T08:59:22;100167.38;;;20.19;67.91
55685;BME280;41883;49.544;8.646;2022-09-09T09:02:03;100172.78;;;20.55;66.95
55685;BME280;41883;49.544;8.646;2022-09-09T09:04:41;100170.47;;;20.89;66.33
55685;BME280;41883;49.544;8.646;2022-09-09T09:07:25;100177.41;;;21.09;65.30
55685;BME280;41883;49.544;8.646;2022-09-09T09:10:02;100183.59;;;21.09;64.34
55685;BME280;41883;49.544;8.646;2022-09-09T09:12:39;100183.03;;;21.07;64.20
55685;BME280;41883;49.544;8.646;2022-09-09T09:15:18;100177.41;;;21.09;63.30
55685;BME280;41883;49.544;8.646;2022-09-09T09:17:44;100176.63;;;21.20;63.91
55685;BME280;41883;49.544;8.646;2022-09-09T09:20:17;100161.03;;;21.40;62.65
55685;BME280;41883;49.544;8.646;2022-09-09T09:22:50;100164.09;;;21.68;63.25
55685;BME280;41883;49.544;8.646;2022-09-09T09:25:20;100157.91;;;21.91;62.15
55685;BME280;41883;49.544;8.646;2022-09-09T09:28:02;100166.16;;;22.94;60.88
55685;BME280;41883;49.544;8.646;2022-09-09T09:30:39;100166.09;;;25.00;53.74
55685;BME280;41883;49.544;8.646;2022-09-09T09:33:14;100162.63;;;26.12;49.14
55685;BME280;41883;49.544;8.646;2022-09-09T09:35:40;100166.88;;;26.55;46.88
55685;BME280;41883;49.544;8.646;2022-09-09T09:38:17;100161.72;;;26.54;47.05
55685;BME280;41883;49.544;8.646;2022-09-09T09:40:54;100162.66;;;27.57;43.68
55685;BME280;41883;49.544;8.646;2022-09-09T09:43:31;100160.09;;;28.11;42.91
55685;BME280;41883;49.544;8.646;2022-09-09T09:45:57;100157.75;;;27.07;45.01
55685;BME280;41883;49.544;8.646;2022-09-09T09:48:23;100151.22;;;26.10;46.62
55685;BME280;41883;49.544;8.646;2022-09-09T09:50:55;100146.28;;;25.21;47.13
55685;BME280;41883;49.544;8.646;2022-09-09T09:53:33;100150.41;;;24.48;48.31
55685;BME280;41883;49.544;8.646;2022-09-09T09:56:02;100155.03;;;24.08;49.10
55685;BME280;41883;49.544;8.646;2022-09-09T10:01:22;100159.75;;;22.83;52.97
55685;BME280;41883;49.544;8.646;2022-09-09T10:03:54;100165.81;;;22.33;54.25
55685;BME280;41883;49.544;8.646;2022-09-09T10:06:36;100176.47;;;21.69;56.76
55685;BME280;41883;49.544;8.646;2022-09-09T10:09:03;100189.50;;;20.57;59.74
55685;BME280;41883;49.544;8.646;2022-09-09T10:11:42;100036.72;;;19.82;62.57
55685;BME280;41883;49.544;8.646;2022-09-09T10:19:58;100038.28;;;18.14;70.74
55685;BME280;41883;49.544;8.646;2022-09-09T10:22:28;100012.03;;;17.78;72.74
55685;BME280;41883;49.544;8.646;2022-09-09T10:30:28;100168.59;;;17.94;nan
55685;BME280;41883;49.544;8.646;2022-09-09T10:33:10;100169.88;;;18.50;nan
55685;BME280;41883;49.544;8.646;2022-09-09T10:38:38;100171.44;;;22.72;nan
55685;BME280;41883;49.544;8.646;2022-09-09T10:41:20;100160.00;;;25.42;nan
55685;BME280;41883;49.544;8.646;2022-09-09T10:44:15;100163.47;;;27.47;nan
55685;BME280;41883;49.544;8.646;2022-09-09T10:52:07;100145.94;;;30.87;nan
55685;BME280;41883;49.544;8.646;2022-09-09T10:57:10;100136.75;;;30.16;nan
55685;BME280;41883;49.544;8.646;2022-09-09T10:59:42;100128.28;;;29.70;nan
55685;BME280;41883;49.544;8.646;2022-09-09T11:02:14;100130.69;;;30.81;nan
55685;BME280;41883;49.544;8.646;2022-09-09T11:04:51;100135.72;;;31.86;nan
55685;BME280;41883;49.544;8.646;2022-09-09T11:07:27;100131.50;;;32.72;nan
55685;BME280;41883;49.544;8.646;2022-09-09T11:09:58;100116.81;;;33.35;nan
55685;BME280;41883;49.544;8.646;2022-09-09T11:12:27;100120.19;;;33.63;nan
55685;BME280;41883;49.544;8.646;2022-09-09T11:15:06;100116.50;;;34.17;nan
55685;BME280;41883;49.544;8.646;2022-09-09T11:17:45;100116.06;;;34.67;nan
55685;BME280;41883;49.544;8.646;2022-09-09T11:20:13;100108.16;;;34.65;nan
55685;BME280;41883;49.544;8.646;2022-09-09T11:23:03;100106.50;;;34.56;nan
55685;BME280;41883;49.544;8.646;2022-09-09T11:25:36;100105.06;;;34.58;nan
55685;BME280;41883;49.544;8.646;2022-09-09T11:36:42;100107.63;;;34.89;nan
55685;BME280;41883;49.544;8.646;2022-09-09T11:39:35;100109.56;;;35.06;nan
55685;BME280;41883;49.544;8.646;2022-09-09T11:42:16;100103.09;;;35.11;nan
55685;BME280;41883;49.544;8.646;2022-09-09T11:44:43;100107.31;;;34.82;nan
55685;BME280;41883;49.544;8.646;2022-09-09T11:47:27;100103.03;;;33.98;nan
55685;BME280;41883;49.544;8.646;2022-09-09T11:52:42;100109.59;;;32.94;nan
55685;BME280;41883;49.544;8.646;2022-09-09T11:55:31;100099.06;;;31.60;nan
55685;BME280;41883;49.544;8.646;2022-09-09T11:58:02;100099.03;;;30.23;nan
55685;BME280;41883;49.544;8.646;2022-09-09T12:00:46;100093.44;;;29.13;nan
55685;BME280;41883;49.544;8.646;2022-09-09T12:03:50;100094.53;;;28.73;nan
55685;BME280;41883;49.544;8.646;2022-09-09T12:06:42;100108.28;;;27.82;nan
55685;BME280;41883;49.544;8.646;2022-09-09T12:09:23;100106.19;;;27.18;nan
55685;BME280;41883;49.544;8.646;2022-09-09T12:11:50;100100.78;;;26.82;nan
55685;BME280;41883;49.544;8.646;2022-09-09T12:17:24;100108.44;;;26.17;nan
55685;BME280;41883;49.544;8.646;2022-09-09T12:20:13;100115.53;;;25.75;nan
55685;BME280;41883;49.544;8.646;2022-09-09T12:23:02;100114.59;;;25.54;nan
55685;BME280;41883;49.544;8.646;2022-09-09T12:31:20;100118.78;;;23.82;nan
55685;BME280;41883;49.544;8.646;2022-09-09T12:33:48;100124.34;;;23.59;nan
55685;BME280;41883;49.544;8.646;2022-09-09T12:36:17;100129.78;;;23.25;nan
55685;BME280;41883;49.544;8.646;2022-09-09T12:38:44;100150.41;;;21.69;nan
55685;BME280;41883;49.544;8.646;2022-09-09T12:41:25;100174.25;;;20.33;nan
55685;BME280;41883;49.544;8.646;2022-09-09T12:43:51;100206.25;;;19.47;nan
55685;BME280;41883;49.544;8.646;2022-09-09T12:46:27;100161.00;;;17.97;nan
55685;BME280;41883;49.544;8.646;2022-09-09T12:48:57;100165.34;;;17.45;nan
55685;BME280;41883;49.544;8.646;2022-09-09T12:51:32;100167.59;;;17.28;nan
55685;BME280;41883;49.544;8.646;2022-09-09T12:53:59;100168.81;;;17.32;nan
55685;BME280;41883;49.544;8.646;2022-09-09T12:56:27;100153.81;;;17.31;nan
55685;BME280;41883;49.544;8.646;2022-09-09T12:58:56;100134.91;;;17.53;nan
55685;BME280;41883;49.544;8.646;2022-09-09T13:01:26;100125.59;;;17.75;nan
55685;BME280;41883;49.544;8.646;2022-09-09T13:03:52;100115.34;;;17.59;nan
55685;BME280;41883;49.544;8.646;2022-09-09T13:06:23;100118.84;;;17.59;nan
55685;BME280;41883;49.544;8.646;2022-09-09T13:08:53;100122.13;;;17.81;nan
55685;BME280;41883;49.544;8.646;2022-09-09T13:11:38;100128.69;;;17.72;nan
55685;BME280;41883;49.544;8.646;2022-09-09T13:14:05;100126.44;;;17.56;nan
55685;BME280;41883;49.544;8.646;2022-09-09T13:16:33;100131.19;;;17.54;nan
55685;BME280;41883;49.544;8.646;2022-09-09T13:19:13;100116.59;;;17.50;nan
55685;BME280;41883;49.544;8.646;2022-09-09T13:21:40;100109.41;;;17.50;nan
55685;BME280;41883;49.544;8.646;2022-09-09T13:24:21;100116.78;;;17.41;nan
55685;BME280;41883;49.544;8.646;2022-09-09T13:26:58;100127.09;;;17.31;nan
55685;BME280;41883;49.544;8.646;2022-09-09T13:29:23;100137.13;;;17.16;nan
55685;BME280;41883;49.544;8.646;2022-09-09T13:31:50;100154.56;;;16.92;nan
55685;BME280;41883;49.544;8.646;2022-09-09T13:34:31;100165.59;;;16.75;nan
55685;BME280;41883;49.544;8.646;2022-09-09T13:37:02;100148.53;;;16.70;nan
55685;BME280;41883;49.544;8.646;2022-09-09T13:39:28;100142.75;;;16.53;nan
55685;BME280;41883;49.544;8.646;2022-09-09T13:41:54;100150.13;;;16.51;nan
55685;BME280;41883;49.544;8.646;2022-09-09T13:44:35;100152.63;;;16.59;nan
55685;BME280;41883;49.544;8.646;2022-09-09T13:47:15;100173.75;;;16.61;nan
55685;BME280;41883;49.544;8.646;2022-09-09T13:49:42;100144.91;;;16.29;nan
55685;BME280;41883;49.544;8.646;2022-09-09T13:52:11;100146.22;;;16.05;nan
55685;BME280;41883;49.544;8.646;2022-09-09T13:54:39;100142.88;;;15.97;nan
55685;BME280;41883;49.544;8.646;2022-09-09T13:57:05;100146.66;;;16.09;nan
55685;BME280;41883;49.544;8.646;2022-09-09T13:59:31;100139.53;;;16.23;nan
55685;BME280;41883;49.544;8.646;2022-09-09T14:01:57;100139.72;;;16.14;nan
55685;BME280;41883;49.544;8.646;2022-09-09T14:04:22;100139.13;;;16.19;nan
55685;BME280;41883;49.544;8.646;2022-09-09T14:06:47;100126.91;;;16.45;nan
55685;BME280;41883;49.544;8.646;2022-09-09T14:09:15;100130.53;;;16.92;nan
55685;BME280;41883;49.544;8.646;2022-09-09T14:11:42;100124.00;;;17.34;nan
55685;BME280;41883;49.544;8.646;2022-09-09T14:14:08;100123.78;;;17.62;nan
55685;BME280;41883;49.544;8.646;2022-09-09T14:16:34;100115.53;;;17.71;nan
55685;BME280;41883;49.544;8.646;2022-09-09T14:18:59;100111.03;;;17.65;nan
55685;BME280;41883;49.544;8.646;2022-09-09T14:21:25;100102.78;;;17.66;nan
55685;BME280;41883;49.544;8.646;2022-09-09T14:23:51;100096.81;;;17.84;nan
55685;BME280;41883;49.544;8.646;2022-09-09T14:26:18;100100.06;;;17.99;nan